createdAt,value
2018-09-05T00:01:13.548Z,14.95
2018-09-05T00:03:45.169Z,14.58
2018-09-05T00:06:13.636Z,16.10
2018-09-05T00:08:42.056Z,16.32
2018-09-05T00:11:10.477Z,16.45
2018-09-05T00:13:38.904Z,25.62
2018-09-05T00:16:07.378Z,19.98
2018-09-05T00:18:35.760Z,16.75
2018-09-05T00:21:04.203Z,18.25
2018-09-05T00:23:32.825Z,17.98
2018-09-05T00:26:01.237Z,17.25
2018-09-05T00:28:29.657Z,16.82
2018-09-05T00:30:58.057Z,18.15
2018-09-05T00:33:26.473Z,19.00
2018-09-05T00:35:54.954Z,24.85
2018-09-05T00:38:24.414Z,25.17
2018-09-05T00:40:52.891Z,27.02
2018-09-05T00:43:21.321Z,30.27
2018-09-05T00:45:49.721Z,25.82
2018-09-05T00:48:18.146Z,21.80
2018-09-05T00:50:46.723Z,19.12
2018-09-05T00:53:15.207Z,19.48
2018-09-05T00:55:43.624Z,17.57
2018-09-05T00:58:12.022Z,18.05
2018-09-05T01:00:40.414Z,18.60
2018-09-05T01:03:08.937Z,21.10
2018-09-05T01:05:37.351Z,18.80
2018-09-05T01:08:06.263Z,20.12
2018-09-05T01:10:34.633Z,19.10
2018-09-05T01:13:03.050Z,23.45
2018-09-05T01:15:31.549Z,20.15
2018-09-05T01:17:59.965Z,19.52
2018-09-05T01:20:28.354Z,19.52
2018-09-05T01:22:56.757Z,20.70
2018-09-05T01:25:26.134Z,19.57
2018-09-05T01:27:55.054Z,21.00
2018-09-05T01:30:27.295Z,19.80
2018-09-05T01:32:56.452Z,16.62
2018-09-05T01:35:25.574Z,17.52
2018-09-05T01:37:54.541Z,18.62
2018-09-05T01:40:23.491Z,18.98
2018-09-05T01:42:51.875Z,18.40
2018-09-05T01:45:20.273Z,21.17
2018-09-05T01:47:48.647Z,18.50
2018-09-05T01:50:17.084Z,19.90
2018-09-05T01:52:45.429Z,21.02
2018-09-05T01:55:13.858Z,21.30
2018-09-05T01:57:42.210Z,19.85
2018-09-05T02:00:14.878Z,19.37
2018-09-05T02:02:43.342Z,20.60
2018-09-05T02:05:11.860Z,21.73
2018-09-05T02:07:40.321Z,18.23
2018-09-05T02:10:08.727Z,19.10
2018-09-05T02:12:37.285Z,19.12
2018-09-05T02:15:05.729Z,18.67
2018-09-05T02:17:34.155Z,17.60
2018-09-05T02:20:02.602Z,18.50
2018-09-05T02:22:31.133Z,18.75
2018-09-05T02:24:59.530Z,17.50
2018-09-05T02:27:27.922Z,22.25
2018-09-05T02:29:56.339Z,22.70
2018-09-05T02:32:24.821Z,21.12
2018-09-05T02:34:53.418Z,22.37
2018-09-05T02:37:21.853Z,24.92
2018-09-05T02:39:50.270Z,23.05
2018-09-05T02:42:18.811Z,21.48
2018-09-05T02:44:47.227Z,21.53
2018-09-05T02:47:16.298Z,23.05
2018-09-05T02:49:44.771Z,21.00
2018-09-05T02:52:13.222Z,20.57
2018-09-05T02:55:20.055Z,19.90
2018-09-05T02:57:48.441Z,22.25
2018-09-05T03:00:16.884Z,20.02
2018-09-05T03:02:45.276Z,19.07
2018-09-05T03:05:13.803Z,23.05
2018-09-05T03:07:42.284Z,19.53
2018-09-05T03:10:10.716Z,20.68
2018-09-05T03:12:39.144Z,19.80
2018-09-05T03:15:07.597Z,21.85
2018-09-05T03:17:36.248Z,19.77
2018-09-05T03:20:05.030Z,19.85
2018-09-05T03:22:34.143Z,20.93
2018-09-05T03:25:02.558Z,20.08
2018-09-05T03:27:30.950Z,20.90
2018-09-05T03:29:59.418Z,20.33
2018-09-05T03:32:27.867Z,20.10
2018-09-05T03:34:56.377Z,19.75
2018-09-05T03:37:24.867Z,22.17
2018-09-05T03:39:53.327Z,19.00
2018-09-05T03:42:21.775Z,22.17
2018-09-05T03:44:50.189Z,22.83
2018-09-05T03:47:18.610Z,21.20
2018-09-05T03:49:47.056Z,20.12
2018-09-05T03:52:15.562Z,24.05
2018-09-05T03:54:44.172Z,22.77
2018-09-05T03:57:12.617Z,21.97
2018-09-05T03:59:41.008Z,21.90
2018-09-05T04:02:09.420Z,23.95
2018-09-05T04:04:37.838Z,24.60
2018-09-05T04:07:06.262Z,29.32
2018-09-05T04:09:35.058Z,26.02
2018-09-05T04:12:03.519Z,21.27
2018-09-05T04:14:32.011Z,24.33
2018-09-05T04:17:00.428Z,23.15
2018-09-05T04:19:28.827Z,24.07
2018-09-05T04:21:57.309Z,25.17
2018-09-05T04:24:25.735Z,23.85
2018-09-05T04:26:54.176Z,23.27
2018-09-05T04:29:22.649Z,26.90
2018-09-05T04:31:51.101Z,25.47
2018-09-05T04:34:19.484Z,25.07
2018-09-05T04:36:48.405Z,24.63
2018-09-05T04:39:16.948Z,25.90
2018-09-05T04:41:45.543Z,24.57
2018-09-05T04:44:13.943Z,28.30
2018-09-05T04:46:42.430Z,23.85
2018-09-05T04:49:10.864Z,23.20
2018-09-05T04:51:39.316Z,25.57
2018-09-05T04:54:07.861Z,26.30
2018-09-05T04:56:36.943Z,23.30
2018-09-05T04:59:06.449Z,24.97
2018-09-05T05:01:35.879Z,25.77
2018-09-05T05:04:04.967Z,25.75
2018-09-05T05:06:33.450Z,24.37
2018-09-05T05:09:02.008Z,30.65
2018-09-05T05:11:30.401Z,25.62
2018-09-05T05:13:58.785Z,27.20
2018-09-05T05:16:27.454Z,27.83
2018-09-05T05:18:55.856Z,29.67
2018-09-05T05:21:24.333Z,27.85
2018-09-05T05:23:52.770Z,26.90
2018-09-05T05:26:21.209Z,29.07
2018-09-05T05:28:49.724Z,29.70
2018-09-05T05:31:18.195Z,26.93
2018-09-05T05:33:46.768Z,26.93
2018-09-05T05:36:15.869Z,27.13
2018-09-05T05:38:44.422Z,28.97
2018-09-05T05:41:12.886Z,25.02
2018-09-05T05:43:41.397Z,27.20
2018-09-05T05:46:10.315Z,25.25
2018-09-05T05:48:38.887Z,28.10
2018-09-05T05:51:08.362Z,26.80
2018-09-05T05:53:37.143Z,27.03
2018-09-05T05:56:06.151Z,29.87
2018-09-05T05:58:35.479Z,30.02
2018-09-05T06:01:05.799Z,28.97
2018-09-05T06:03:35.017Z,29.30
2018-09-05T06:06:03.667Z,28.00
2018-09-05T06:08:32.434Z,31.10
2018-09-05T06:11:00.915Z,37.67
2018-09-05T06:13:29.389Z,31.37
2018-09-05T06:15:57.832Z,31.27
2018-09-05T06:18:26.717Z,28.98
2018-09-05T06:20:55.439Z,27.15
2018-09-05T06:23:23.927Z,26.62
2018-09-05T06:25:52.429Z,29.70
2018-09-05T06:28:20.994Z,31.30
2018-09-05T06:30:49.506Z,31.33
2018-09-05T06:33:18.087Z,33.10
2018-09-05T06:35:46.597Z,41.85
2018-09-05T06:38:15.118Z,33.53
2018-09-05T06:40:43.583Z,39.53
2018-09-05T06:43:12.096Z,40.30
2018-09-05T06:45:40.584Z,37.75
2018-09-05T06:48:09.365Z,40.95
2018-09-05T06:50:37.932Z,42.17
2018-09-05T06:53:06.657Z,38.17
2018-09-05T06:55:35.899Z,34.63
2018-09-05T06:58:05.108Z,33.48
2018-09-05T07:00:34.037Z,35.38
2018-09-05T07:03:03.134Z,33.35
2018-09-05T07:05:31.713Z,39.70
2018-09-05T07:08:00.295Z,36.35
2018-09-05T07:10:28.966Z,35.55
2018-09-05T07:12:57.423Z,33.80
2018-09-05T07:15:25.880Z,38.75
2018-09-05T07:17:54.650Z,36.28
2018-09-05T07:20:23.326Z,43.02
2018-09-05T07:22:51.799Z,43.92
2018-09-05T07:25:20.343Z,42.20
2018-09-05T07:27:48.828Z,39.63
2018-09-05T07:30:17.919Z,42.67
2018-09-05T07:32:46.879Z,45.78
2018-09-05T07:35:15.633Z,45.00
2018-09-05T07:37:44.200Z,44.75
2018-09-05T07:41:15.943Z,41.58
2018-09-05T07:43:44.575Z,43.55
2018-09-05T07:46:12.971Z,42.00
2018-09-05T07:48:41.459Z,43.35
2018-09-05T07:51:09.992Z,43.35
2018-09-05T07:53:38.506Z,46.05
2018-09-05T07:56:08.119Z,49.77
2018-09-05T07:58:37.171Z,42.10
2018-09-05T08:01:06.500Z,42.20
2018-09-05T08:03:34.985Z,39.88
2018-09-05T08:06:03.554Z,38.20
2018-09-05T08:08:32.020Z,42.55
2018-09-05T08:11:00.524Z,42.58
2018-09-05T08:13:28.973Z,39.58
2018-09-05T08:15:57.445Z,39.23
2018-09-05T08:18:25.998Z,37.05
2018-09-05T08:20:54.553Z,35.85
2018-09-05T08:23:22.983Z,37.60
2018-09-05T08:25:51.464Z,37.65
2018-09-05T08:28:20.681Z,36.35
2018-09-05T08:30:49.511Z,35.15
2018-09-05T08:33:18.973Z,33.58
2018-09-05T08:35:48.281Z,34.15
2018-09-05T08:38:17.340Z,37.00
2018-09-05T08:40:46.517Z,37.65
2018-09-05T08:43:15.324Z,34.88
2018-09-05T08:45:44.264Z,37.85
2018-09-05T08:48:12.792Z,37.38
2018-09-05T08:50:41.860Z,38.85
2018-09-05T08:53:10.901Z,34.45
2018-09-05T08:55:39.633Z,37.55
2018-09-05T08:58:08.401Z,36.68
2018-09-05T09:00:37.247Z,33.38
2018-09-05T09:03:06.064Z,38.83
2018-09-05T09:05:34.636Z,37.25
2018-09-05T09:08:03.451Z,37.17
2018-09-05T09:10:32.340Z,39.90
2018-09-05T09:13:00.888Z,38.78
2018-09-05T09:15:29.574Z,40.50
2018-09-05T09:17:58.394Z,41.60
2018-09-05T09:20:27.133Z,40.67
2018-09-05T09:22:56.092Z,45.60
2018-09-05T09:25:25.473Z,40.92
2018-09-05T09:27:54.895Z,42.25
2018-09-05T09:30:23.787Z,42.65
2018-09-05T09:32:52.535Z,34.58
2018-09-05T09:35:21.455Z,37.13
2018-09-05T09:37:50.652Z,27.45
2018-09-05T09:40:19.423Z,27.15
2018-09-05T09:42:49.110Z,27.45
2018-09-05T09:45:19.332Z,31.85
2018-09-05T09:47:48.467Z,32.80
2018-09-05T09:50:17.786Z,31.80
2018-09-05T09:52:47.012Z,37.88
2018-09-05T09:55:15.952Z,36.20
2018-09-05T09:57:44.668Z,34.90
2018-09-05T10:00:17.885Z,34.75
2018-09-05T10:02:52.347Z,33.60
2018-09-05T10:05:26.527Z,34.95
2018-09-05T10:08:00.782Z,37.40
2018-09-05T10:10:34.579Z,33.48
2018-09-05T10:13:08.359Z,34.90
2018-09-05T10:15:42.495Z,31.05
2018-09-05T10:18:16.465Z,29.40
2018-09-05T10:20:49.065Z,26.80
2018-09-05T10:23:17.956Z,29.67
2018-09-05T10:25:46.796Z,28.07
2018-09-05T10:28:15.719Z,26.42
2018-09-05T10:30:44.481Z,24.18
2018-09-05T10:33:13.329Z,19.92
2018-09-05T10:35:42.940Z,19.45
2018-09-05T10:38:12.197Z,17.23
2018-09-05T10:40:40.939Z,17.77
2018-09-05T10:43:09.520Z,17.67
2018-09-05T10:45:38.021Z,16.17
2018-09-05T10:48:14.132Z,18.10
2018-09-05T10:50:42.713Z,19.57
2018-09-05T10:53:11.724Z,19.85
2018-09-05T10:55:40.410Z,19.65
2018-09-05T10:58:09.200Z,17.07
2018-09-05T11:00:37.814Z,17.23
2018-09-05T11:03:07.171Z,19.02
2018-09-05T11:05:36.499Z,17.92
2018-09-05T11:08:05.570Z,17.67
2018-09-05T11:10:34.440Z,19.42
2018-09-05T11:13:03.086Z,16.80
2018-09-05T11:15:32.240Z,21.00
2018-09-05T11:18:00.880Z,18.40
2018-09-05T11:20:30.209Z,15.45
2018-09-05T11:22:58.849Z,15.40
2018-09-05T11:25:27.510Z,14.03
2018-09-05T11:27:56.932Z,15.58
2018-09-05T11:30:25.849Z,17.25
2018-09-05T11:32:54.696Z,14.15
2018-09-05T11:35:24.360Z,14.58
2018-09-05T11:37:58.049Z,13.72
2018-09-05T11:40:27.343Z,14.23
2018-09-05T11:42:56.523Z,14.13
2018-09-05T11:45:25.267Z,12.80
2018-09-05T11:47:54.567Z,12.35
2018-09-05T11:50:23.924Z,14.58
2018-09-05T11:52:52.747Z,12.85
2018-09-05T11:55:22.410Z,13.10
2018-09-05T11:57:51.503Z,13.72
2018-09-05T12:00:20.414Z,13.22
2018-09-05T12:02:50.189Z,13.20
2018-09-05T12:05:19.355Z,12.85
2018-09-05T12:07:48.909Z,13.28
2018-09-05T12:10:18.765Z,12.53
2018-09-05T12:12:47.606Z,12.10
2018-09-05T12:15:16.787Z,12.93
2018-09-05T12:17:45.501Z,12.63
2018-09-05T12:20:14.696Z,12.50
2018-09-05T12:22:43.223Z,13.65
2018-09-05T12:25:12.205Z,12.28
2018-09-05T12:27:40.754Z,11.33
2018-09-05T12:30:09.541Z,12.40
2018-09-05T12:32:38.233Z,13.40
2018-09-05T12:35:07.159Z,14.87
2018-09-05T12:37:35.987Z,14.38
2018-09-05T12:40:05.310Z,18.67
2018-09-05T12:42:34.638Z,16.27
2018-09-05T12:45:03.348Z,18.00
2018-09-05T12:47:31.903Z,14.38
2018-09-05T12:50:00.755Z,11.48
2018-09-05T12:52:29.547Z,12.93
2018-09-05T12:54:58.801Z,16.82
2018-09-05T12:57:27.479Z,10.82
2018-09-05T12:59:57.283Z,10.38
2018-09-05T13:02:26.166Z,10.38
2018-09-05T13:04:55.282Z,10.15
2018-09-05T13:07:24.331Z,9.70
2018-09-05T13:09:53.602Z,9.98
2018-09-05T13:12:22.553Z,9.58
2018-09-05T13:14:51.400Z,8.53
2018-09-05T13:17:20.719Z,9.90
2018-09-05T13:19:50.030Z,9.50
2018-09-05T13:22:19.404Z,9.58
2018-09-05T13:24:48.685Z,10.08
2018-09-05T13:27:17.463Z,9.88
2018-09-05T13:29:46.172Z,11.08
2018-09-05T13:32:15.090Z,10.65
2018-09-05T13:34:43.973Z,11.00
2018-09-05T13:37:12.878Z,9.93
2018-09-05T13:39:42.194Z,9.55
2018-09-05T13:42:11.090Z,10.63
2018-09-05T13:44:39.865Z,9.55
2018-09-05T13:47:08.723Z,10.68
2018-09-05T13:49:37.491Z,9.63
2018-09-05T13:52:07.269Z,8.88
2018-09-05T13:54:38.747Z,9.23
2018-09-05T13:57:07.338Z,8.53
2018-09-05T13:59:36.062Z,18.42
2018-09-05T14:02:04.660Z,16.70
2018-09-05T14:04:42.591Z,9.28
2018-09-05T14:07:11.299Z,9.30
2018-09-05T14:09:40.474Z,8.15
2018-09-05T14:12:12.671Z,8.48
2018-09-05T14:14:41.393Z,8.63
2018-09-05T14:17:10.196Z,8.68
2018-09-05T14:19:39.377Z,9.00
2018-09-05T14:22:08.078Z,9.13
2018-09-05T14:24:36.842Z,12.23
2018-09-05T14:27:05.626Z,9.55
2018-09-05T14:29:34.480Z,22.00
2018-09-05T14:32:03.033Z,9.68
2018-09-05T14:34:31.771Z,10.58
2018-09-05T14:37:01.434Z,11.50
2018-09-05T14:39:30.067Z,15.83
2018-09-05T14:41:58.882Z,12.82
2018-09-05T14:44:27.440Z,9.98
2018-09-05T14:46:56.930Z,9.00
2018-09-05T14:49:25.871Z,9.28
2018-09-05T14:51:55.082Z,9.53
2018-09-05T14:54:24.247Z,9.78
2018-09-05T14:56:53.567Z,9.45
2018-09-05T14:59:22.562Z,12.55
2018-09-05T15:01:52.049Z,11.18
2018-09-05T15:04:22.115Z,10.98
2018-09-05T15:06:51.132Z,10.50
2018-09-05T15:09:20.136Z,11.30
2018-09-05T15:11:49.122Z,10.48
2018-09-05T15:14:18.422Z,11.78
2018-09-05T15:16:47.669Z,12.23
2018-09-05T15:19:16.437Z,12.70
2018-09-05T15:21:45.533Z,12.80
2018-09-05T15:24:15.190Z,14.80
2018-09-05T15:26:43.947Z,28.85
2018-09-05T15:29:12.746Z,14.55
2018-09-05T15:31:41.666Z,12.75
2018-09-05T15:34:10.504Z,15.60
2018-09-05T15:36:39.623Z,15.98
2018-09-05T15:39:09.696Z,16.02
2018-09-05T15:41:38.772Z,44.90
2018-09-05T15:44:07.367Z,23.73
2018-09-05T15:46:35.988Z,24.90
2018-09-05T15:49:04.733Z,16.37
2018-09-05T15:51:34.885Z,10.82
2018-09-05T15:54:03.580Z,12.40
2018-09-05T15:56:32.445Z,13.50
2018-09-05T15:59:01.161Z,11.08
2018-09-05T16:01:30.115Z,10.53
2018-09-05T16:03:58.997Z,11.22
2018-09-05T16:06:27.699Z,12.63
2018-09-05T16:08:56.698Z,12.47
2018-09-05T16:11:25.847Z,12.33
2018-09-05T16:13:54.811Z,12.45
2018-09-05T16:16:23.779Z,11.25
2018-09-05T16:18:53.101Z,23.05
2018-09-05T16:21:21.898Z,17.70
2018-09-05T16:23:50.931Z,12.70
2018-09-05T16:26:20.028Z,12.10
2018-09-05T16:28:49.355Z,20.65
2018-09-05T16:31:18.583Z,15.90
2018-09-05T16:33:47.607Z,12.55
2018-09-05T16:36:16.476Z,12.07
2018-09-05T16:38:47.782Z,12.28
2018-09-05T16:41:16.627Z,12.63
2018-09-05T16:43:46.536Z,22.82
2018-09-05T16:46:15.346Z,18.12
2018-09-05T16:48:44.745Z,17.67
2018-09-05T16:51:13.927Z,13.38
2018-09-05T16:53:42.611Z,32.70
2018-09-05T16:56:11.266Z,20.02
2018-09-05T16:58:40.950Z,19.60
2018-09-05T17:01:09.696Z,15.10
2018-09-05T17:03:38.498Z,14.83
2018-09-05T17:06:07.097Z,13.40
2018-09-05T17:08:35.881Z,33.15
2018-09-05T17:11:04.600Z,26.57
2018-09-05T17:13:33.315Z,17.67
2018-09-05T17:16:02.063Z,19.45
2018-09-05T17:18:30.935Z,14.60
2018-09-05T17:20:59.708Z,27.27
2018-09-05T17:23:28.587Z,26.85
2018-09-05T17:25:57.786Z,21.42
2018-09-05T17:28:26.541Z,44.15
2018-09-05T17:30:55.474Z,33.45
2018-09-05T17:33:24.346Z,38.80
2018-09-05T17:35:53.141Z,27.87
2018-09-05T17:38:22.234Z,27.02
2018-09-05T17:40:51.220Z,18.15
2018-09-05T17:43:20.312Z,14.05
2018-09-05T17:45:49.667Z,12.78
2018-09-05T17:48:19.064Z,14.18
2018-09-05T17:50:48.807Z,14.05
2018-09-05T17:53:17.941Z,16.25
2018-09-05T17:55:47.255Z,17.90
2018-09-05T17:58:16.410Z,17.65
2018-09-05T18:00:45.473Z,33.02
2018-09-05T18:03:14.094Z,19.85
2018-09-05T18:05:44.716Z,16.07
2018-09-05T18:08:13.541Z,14.47
2018-09-05T18:10:42.719Z,14.63
2018-09-05T18:13:11.295Z,18.50
2018-09-05T18:15:39.959Z,14.63
2018-09-05T18:18:09.040Z,34.75
2018-09-05T18:20:37.797Z,24.70
2018-09-05T18:23:06.491Z,18.55
2018-09-05T18:25:35.185Z,22.67
2018-09-05T18:28:03.958Z,16.37
2018-09-05T18:30:32.870Z,15.85
2018-09-05T18:33:02.632Z,22.42
2018-09-05T18:35:32.357Z,17.30
2018-09-05T18:38:01.095Z,16.95
2018-09-05T18:40:29.835Z,19.55
2018-09-05T18:42:58.848Z,26.82
2018-09-05T18:45:27.690Z,20.88
2018-09-05T18:47:56.811Z,21.50
2018-09-05T18:50:25.759Z,16.70
2018-09-05T18:52:59.878Z,29.27
2018-09-05T18:55:30.805Z,25.95
2018-09-05T18:58:00.721Z,18.57
2018-09-05T19:00:30.272Z,28.27
2018-09-05T19:02:59.304Z,19.20
2018-09-05T19:05:28.181Z,17.75
2018-09-05T19:07:57.503Z,14.23
2018-09-05T19:10:26.473Z,15.60
2018-09-05T19:12:56.367Z,14.55
2018-09-05T19:15:25.824Z,17.12
2018-09-05T19:17:55.777Z,13.15
2018-09-05T19:20:25.275Z,15.72
2018-09-05T19:22:54.616Z,14.25
2018-09-05T19:25:23.603Z,12.53
2018-09-05T19:27:52.489Z,12.78
2018-09-05T19:30:21.383Z,14.83
2018-09-05T19:32:50.263Z,14.75
2018-09-05T19:35:19.149Z,16.60
2018-09-05T19:37:48.403Z,14.80
2018-09-05T19:40:17.090Z,17.07
2018-09-05T19:42:46.551Z,15.05
2018-09-05T19:45:15.833Z,14.28
2018-09-05T19:47:45.429Z,15.13
2018-09-05T19:50:14.100Z,12.70
2018-09-05T19:52:42.681Z,13.08
2018-09-05T19:55:11.513Z,12.65
2018-09-05T19:57:40.056Z,12.53
2018-09-05T20:00:08.953Z,13.18
2018-09-05T20:02:37.730Z,12.60
2018-09-05T20:05:06.450Z,13.38
2018-09-05T20:07:34.994Z,13.70
2018-09-05T20:10:03.647Z,16.17
2018-09-05T20:12:32.581Z,12.25
2018-09-05T20:15:01.403Z,11.20
2018-09-05T20:17:30.607Z,13.28
2018-09-05T20:19:59.326Z,14.75
2018-09-05T20:22:28.884Z,13.72
2018-09-05T20:24:57.649Z,12.63
2018-09-05T20:27:26.686Z,14.75
2018-09-05T20:29:56.199Z,11.70
2018-09-05T20:32:24.992Z,14.30
2018-09-05T20:34:53.746Z,12.18
2018-09-05T20:37:22.458Z,13.03
2018-09-05T20:39:51.405Z,11.03
2018-09-05T20:42:20.533Z,11.28
2018-09-05T20:44:49.562Z,14.13
2018-09-05T20:47:18.495Z,10.88
2018-09-05T20:49:47.225Z,11.50
2018-09-05T20:52:16.480Z,13.85
2018-09-05T20:54:45.035Z,9.98
2018-09-05T20:57:13.740Z,10.48
2018-09-05T20:59:44.328Z,11.12
2018-09-05T21:02:13.066Z,13.15
2018-09-05T21:04:41.662Z,13.75
2018-09-05T21:07:18.422Z,11.57
2018-09-05T21:09:47.055Z,9.68
2018-09-05T21:12:15.826Z,9.28
2018-09-05T21:14:44.668Z,10.45
2018-09-05T21:17:13.508Z,10.55
2018-09-05T21:19:42.317Z,10.53
2018-09-05T21:22:11.089Z,9.43
2018-09-05T21:24:40.091Z,11.03
2018-09-05T21:27:08.820Z,8.73
2018-09-05T21:29:37.706Z,11.15
2018-09-05T21:32:07.438Z,9.45
2018-09-05T21:34:36.169Z,10.35
2018-09-05T21:37:04.958Z,11.68
2018-09-05T21:39:33.526Z,10.20
2018-09-05T21:42:02.183Z,10.38
2018-09-05T21:44:30.809Z,10.78
2018-09-05T21:46:59.677Z,11.85
2018-09-05T21:49:28.461Z,9.35
2018-09-05T21:51:57.245Z,11.03
2018-09-05T21:54:26.128Z,11.25
2018-09-05T21:56:54.872Z,12.05
2018-09-05T21:59:23.811Z,12.40
2018-09-05T22:01:52.684Z,14.13
2018-09-05T22:04:21.436Z,11.53
2018-09-05T22:06:50.149Z,10.53
2018-09-05T22:09:18.920Z,11.90
2018-09-05T22:11:48.659Z,10.18
2018-09-05T22:14:17.481Z,11.60
2018-09-05T22:16:46.120Z,11.30
2018-09-05T22:19:14.915Z,12.23
2018-09-05T22:21:43.469Z,11.55
2018-09-05T22:24:12.199Z,11.43
2018-09-05T22:26:41.529Z,12.93
2018-09-05T22:29:10.263Z,10.60
2018-09-05T22:31:39.112Z,10.58
2018-09-05T22:34:07.926Z,13.10
2018-09-05T22:36:36.715Z,9.98
2018-09-05T22:39:06.848Z,10.72
2018-09-05T22:41:35.788Z,10.32
2018-09-05T22:45:15.994Z,12.73
2018-09-05T22:48:03.926Z,10.68
2018-09-05T22:51:13.989Z,10.95
2018-09-05T22:56:11.021Z,12.20
2018-09-05T22:58:59.440Z,15.95
2018-09-05T23:02:15.801Z,15.90
2018-09-05T23:04:55.717Z,12.85
2018-09-05T23:07:37.866Z,12.40
2018-09-05T23:10:18.038Z,23.47
2018-09-05T23:12:58.780Z,15.18
2018-09-05T23:16:38.155Z,13.58
2018-09-05T23:19:47.845Z,18.60
2018-09-05T23:22:17.413Z,16.07
2018-09-05T23:24:46.036Z,13.43
2018-09-05T23:27:14.777Z,14.28
2018-09-05T23:29:43.620Z,14.15
2018-09-05T23:32:12.590Z,14.78
2018-09-05T23:34:41.155Z,17.48
2018-09-05T23:37:10.451Z,13.68
2018-09-05T23:39:39.382Z,13.38
2018-09-05T23:42:08.164Z,13.80
2018-09-05T23:44:37.343Z,13.38
2018-09-05T23:47:06.217Z,11.95
2018-09-05T23:49:34.954Z,13.03
2018-09-05T23:52:03.652Z,12.65
2018-09-05T23:54:33.115Z,12.03
2018-09-05T23:57:01.779Z,14.45
2018-09-05T23:59:30.432Z,15.05
